Time;durP1;ratioP1;P1;durP2;ratioP2;P2;SDS_P1;SDS_P2;PMS_P1;PMS_P2;Temp;Humidity;BMP_temperature;BMP_pressure;BME280_temperature;BME280_humidity;BME280_pressure;Samples;Min_cycle;Max_cycle;Signal;HPM_P1;HPM_P2
2021/06/03 00:01:17;;;;;;;6.87;6.33;;;;;;;;;;5033327;28;20433;-62
2021/06/03 00:03:44;;;;;;;5.30;4.80;;;;;;;;;;5033296;28;20461;-63
2021/06/03 00:06:12;;;;;;;5.47;4.97;;;;;;;;;;5033228;28;20444;-62
2021/06/03 00:08:39;;;;;;;6.70;6.00;;;;;;;;;;5033651;28;20550;-62
2021/06/03 00:11:08;;;;;;;5.37;4.87;;;;;;;;;;5033316;28;20835;-62
2021/06/03 00:13:35;;;;;;;5.77;5.27;;;;;;;;;;5033211;28;20468;-62
2021/06/03 00:16:03;;;;;;;5.70;5.20;;;;;;;;;;5033134;28;20449;-62
2021/06/03 00:18:30;;;;;;;5.90;4.97;;;;;;;;;;5033038;28;20448;-62
2021/06/03 00:20:57;;;;;;;5.17;4.67;;;;;;;;;;5033170;28;20506;-62
2021/06/03 00:23:26;;;;;;;5.63;5.13;;;;;;;;;;5034110;28;20464;-62
2021/06/03 00:25:53;;;;;;;6.20;5.60;;;;;;;;;;5037006;28;20449;-62
2021/06/03 00:28:19;;;;;;;12.33;5.47;;;;;;;;;;5036869;28;20948;-62
2021/06/03 00:30:46;;;;;;;6.00;5.50;;;;;;;;;;5037240;28;20495;-62
2021/06/03 00:33:13;;;;;;;7.97;5.20;;;;;;;;;;5037045;28;20477;-62
2021/06/03 00:35:40;;;;;;;5.60;5.10;;;;;;;;;;5037343;28;20453;-62
2021/06/03 00:38:07;;;;;;;5.97;4.53;;;;;;;;;;5038133;28;20449;-62
2021/06/03 00:40:36;;;;;;;10.10;5.93;;;;;;;;;;5037617;28;20456;-63
2021/06/03 00:43:03;;;;;;;5.97;5.50;;;;;;;;;;5039701;28;20495;-63
2021/06/03 00:45:32;;;;;;;7.00;6.23;;;;;;;;;;5037913;28;20455;-63
2021/06/03 00:47:59;;;;;;;5.63;5.13;;;;;;;;;;5037796;28;20457;-63
2021/06/03 00:50:27;;;;;;;6.77;5.43;;;;;;;;;;5037248;28;20854;-63
2021/06/03 00:52:54;;;;;;;5.70;5.20;;;;;;;;;;5036874;28;20527;-63
2021/06/03 00:55:21;;;;;;;9.47;5.30;;;;;;;;;;5037299;28;20522;-62
2021/06/03 00:57:49;;;;;;;7.20;4.90;;;;;;;;;;5037541;28;20455;-62
2021/06/03 01:00:17;;;;;;;6.00;5.50;;;;;;;;;;5036941;28;20945;-62
2021/06/03 01:02:44;;;;;;;6.10;5.50;;;;;;;;;;5037351;28;20453;-63
2021/06/03 01:05:12;;;;;;;5.93;5.43;;;;;;;;;;5037259;28;20456;-62
2021/06/03 01:07:39;;;;;;;7.97;5.90;;;;;;;;;;5037016;28;20796;-62
2021/06/03 01:10:08;;;;;;;6.13;5.53;;;;;;;;;;5036360;28;20480;-62
2021/06/03 01:12:40;;;;;;;7.37;6.30;;;;;;;;;;5036289;28;20449;-63
2021/06/03 01:15:09;;;;;;;6.70;5.50;;;;;;;;;;5036607;28;20809;-63
2021/06/03 01:17:38;;;;;;;6.93;5.27;;;;;;;;;;5036251;28;20453;-62
2021/06/03 01:20:06;;;;;;;8.47;5.30;;;;;;;;;;5036044;28;20932;-63
2021/06/03 01:22:38;;;;;;;5.90;5.40;;;;;;;;;;5035885;28;20449;-63
2021/06/03 01:25:07;;;;;;;6.33;5.73;;;;;;;;;;5036156;28;20440;-63
2021/06/03 01:27:34;;;;;;;6.00;5.50;;;;;;;;;;5036124;28;20451;-62
2021/06/03 01:30:05;;;;;;;6.60;5.70;;;;;;;;;;5036026;28;20531;-62
2021/06/03 01:32:33;;;;;;;7.53;6.00;;;;;;;;;;5035734;28;20893;-62
2021/06/03 01:35:00;;;;;;;8.17;6.00;;;;;;;;;;5035087;28;20464;-62
2021/06/03 01:37:27;;;;;;;7.40;6.70;;;;;;;;;;5038047;28;20496;-62
2021/06/03 01:39:55;;;;;;;8.00;6.03;;;;;;;;;;5043038;28;20441;-62
2021/06/03 01:42:23;;;;;;;6.33;5.20;;;;;;;;;;5040377;28;20544;-62
2021/06/03 01:44:50;;;;;;;5.90;5.40;;;;;;;;;;5036013;28;20500;-62
2021/06/03 01:47:17;;;;;;;6.40;5.20;;;;;;;;;;5035916;28;20452;-62
2021/06/03 01:49:44;;;;;;;6.97;6.27;;;;;;;;;;5035429;28;21010;-62
2021/06/03 01:52:11;;;;;;;6.83;5.33;;;;;;;;;;5035406;28;20449;-62
2021/06/03 01:54:38;;;;;;;6.13;5.53;;;;;;;;;;5035537;28;20464;-63
2021/06/03 01:57:05;;;;;;;7.50;6.03;;;;;;;;;;5035945;28;20448;-62
2021/06/03 01:59:35;;;;;;;6.40;5.77;;;;;;;;;;5035742;28;20448;-62
2021/06/03 02:02:01;;;;;;;5.93;5.33;;;;;;;;;;5035369;28;20789;-62
2021/06/03 02:04:28;;;;;;;5.90;5.30;;;;;;;;;;5035700;28;20887;-62
2021/06/03 02:06:55;;;;;;;6.50;5.77;;;;;;;;;;5035363;28;20929;-61
2021/06/03 02:09:22;;;;;;;6.50;5.17;;;;;;;;;;5035282;28;20477;-62
2021/06/03 02:11:49;;;;;;;5.93;5.53;;;;;;;;;;5036163;28;20804;-62
2021/06/03 02:14:17;;;;;;;6.37;5.80;;;;;;;;;;5035624;28;20465;-62
2021/06/03 02:16:47;;;;;;;6.53;5.93;;;;;;;;;;5034976;28;20816;-61
2021/06/03 02:19:15;;;;;;;6.17;5.67;;;;;;;;;;5035472;28;20452;-62
2021/06/03 02:21:43;;;;;;;7.13;6.50;;;;;;;;;;5035171;28;20453;-62
2021/06/03 02:24:10;;;;;;;7.20;6.50;;;;;;;;;;5035044;28;20472;-62
2021/06/03 02:26:37;;;;;;;7.27;6.60;;;;;;;;;;5035047;28;20441;-62
2021/06/03 02:29:05;;;;;;;7.10;6.40;;;;;;;;;;5034550;28;20480;-62
2021/06/03 02:31:32;;;;;;;6.67;6.07;;;;;;;;;;5034650;28;20528;-62
2021/06/03 02:34:00;;;;;;;8.30;6.83;;;;;;;;;;5058707;22;20488;-53
2021/06/03 02:36:27;;;;;;;6.40;5.80;;;;;;;;;;5034879;28;20443;-55
2021/06/03 02:38:54;;;;;;;7.30;6.60;;;;;;;;;;5034787;28;20437;-54
2021/06/03 02:41:21;;;;;;;7.63;6.93;;;;;;;;;;5034437;28;20452;-54
2021/06/03 02:43:49;;;;;;;9.60;7.50;;;;;;;;;;5034680;28;20802;-54
2021/06/03 02:46:17;;;;;;;7.83;6.87;;;;;;;;;;5033723;28;20448;-54
2021/06/03 02:48:43;;;;;;;7.27;6.40;;;;;;;;;;5033844;28;20476;-54
2021/06/03 02:51:11;;;;;;;6.67;6.03;;;;;;;;;;5034561;28;20460;-54
2021/06/03 02:53:39;;;;;;;7.63;6.90;;;;;;;;;;5034242;28;20491;-54
2021/06/03 02:56:06;;;;;;;7.53;6.03;;;;;;;;;;5034208;28;20815;-54
2021/06/03 02:58:33;;;;;;;7.17;6.27;;;;;;;;;;5034048;28;20479;-54
2021/06/03 03:01:00;;;;;;;7.70;6.90;;;;;;;;;;5034075;28;20448;-54
2021/06/03 03:03:26;;;;;;;8.50;6.67;;;;;;;;;;5033963;28;20465;-54
2021/06/03 03:05:53;;;;;;;8.00;6.93;;;;;;;;;;5033956;28;20444;-54
2021/06/03 03:08:21;;;;;;;6.50;6.00;;;;;;;;;;5034252;28;20449;-54
2021/06/03 03:10:49;;;;;;;8.43;7.20;;;;;;;;;;5034130;28;20441;-54
2021/06/03 03:13:17;;;;;;;7.80;7.00;;;;;;;;;;5034026;28;20444;-54
2021/06/03 03:15:43;;;;;;;7.67;6.97;;;;;;;;;;5033752;28;20956;-54
2021/06/03 03:18:10;;;;;;;8.77;7.83;;;;;;;;;;5034076;28;20445;-55
2021/06/03 03:20:37;;;;;;;8.23;7.43;;;;;;;;;;5034381;28;20511;-55
2021/06/03 03:23:05;;;;;;;8.33;7.13;;;;;;;;;;5033883;28;20452;-55
2021/06/03 03:25:34;;;;;;;8.53;7.20;;;;;;;;;;5033593;28;20932;-55
2021/06/03 03:28:02;;;;;;;7.67;6.70;;;;;;;;;;5033515;28;20443;-55
2021/06/03 03:30:30;;;;;;;8.57;7.77;;;;;;;;;;5033758;28;20851;-55
2021/06/03 03:32:57;;;;;;;8.50;7.70;;;;;;;;;;5033702;28;20535;-54
2021/06/03 03:35:24;;;;;;;8.57;7.77;;;;;;;;;;5033522;28;20473;-54
2021/06/03 03:37:52;;;;;;;9.53;7.20;;;;;;;;;;5033697;28;20449;-54
2021/06/03 03:40:20;;;;;;;7.90;7.20;;;;;;;;;;5033676;28;20491;-54
2021/06/03 03:42:48;;;;;;;8.47;7.47;;;;;;;;;;5033663;28;20440;-54
2021/06/03 03:45:16;;;;;;;8.80;7.90;;;;;;;;;;5033169;28;20469;-55
2021/06/03 03:47:43;;;;;;;8.07;7.27;;;;;;;;;;5033540;28;20441;-55
2021/06/03 03:50:11;;;;;;;8.00;7.20;;;;;;;;;;5033096;28;20538;-55
2021/06/03 03:52:38;;;;;;;7.93;7.23;;;;;;;;;;5033514;28;20453;-55
2021/06/03 03:55:05;;;;;;;8.43;7.60;;;;;;;;;;5033295;28;20491;-55
2021/06/03 03:57:32;;;;;;;7.73;7.00;;;;;;;;;;5033127;28;20814;-55
2021/06/03 04:00:00;;;;;;;8.33;7.53;;;;;;;;;;5033385;28;20445;-55
2021/06/03 04:02:27;;;;;;;8.30;7.50;;;;;;;;;;5033017;28;20445;-55
2021/06/03 04:08:09;;;;;;;7.67;6.97;;;;;;;;;;5153272;27;20517;-55
2021/06/03 04:10:36;;;;;;;8.57;7.67;;;;;;;;;;5152383;27;20436;-54
2021/06/03 04:13:03;;;;;;;8.33;6.80;;;;;;;;;;5152398;27;20436;-55
2021/06/03 04:15:31;;;;;;;8.00;7.20;;;;;;;;;;5152219;27;20438;-55
2021/06/03 04:17:57;;;;;;;6.80;6.17;;;;;;;;;;5151884;27;20439;-53
2021/06/03 04:20:24;;;;;;;7.70;6.97;;;;;;;;;;5151851;27;20435;-53
2021/06/03 04:22:51;;;;;;;8.07;6.90;;;;;;;;;;5152100;27;20436;-53
2021/06/03 04:25:19;;;;;;;8.40;7.67;;;;;;;;;;5151671;27;20451;-53
2021/06/03 04:27:46;;;;;;;7.63;6.93;;;;;;;;;;5151839;27;20468;-54
2021/06/03 04:30:16;;;;;;;8.60;7.63;;;;;;;;;;5151907;27;20442;-54
2021/06/03 04:32:43;;;;;;;8.17;6.80;;;;;;;;;;5152096;27;20440;-53
2021/06/03 04:35:10;;;;;;;8.97;7.13;;;;;;;;;;5153613;27;20806;-54
2021/06/03 04:37:37;;;;;;;8.60;7.70;;;;;;;;;;5151481;27;20435;-54
2021/06/03 04:40:05;;;;;;;7.80;7.10;;;;;;;;;;5130913;22;20486;-59
2021/06/03 04:42:33;;;;;;;8.17;7.47;;;;;;;;;;5090094;28;20934;-59
2021/06/03 04:45:00;;;;;;;11.33;7.80;;;;;;;;;;5089896;28;20450;-59
2021/06/03 04:47:26;;;;;;;7.33;6.70;;;;;;;;;;5090078;28;21008;-59
2021/06/03 04:49:53;;;;;;;11.10;7.10;;;;;;;;;;5090018;28;20496;-59
2021/06/03 04:52:27;;;;;;;7.80;7.10;;;;;;;;;;5090191;28;20439;-58
2021/06/03 04:54:54;;;;;;;7.30;6.70;;;;;;;;;;5089969;28;20440;-59
2021/06/03 04:57:20;;;;;;;7.33;6.10;;;;;;;;;;5090678;28;20450;-59
2021/06/03 04:59:49;;;;;;;9.43;6.90;;;;;;;;;;5089682;28;20466;-59
2021/06/03 05:02:17;;;;;;;6.60;6.00;;;;;;;;;;5089953;28;20446;-58
2021/06/03 05:04:44;;;;;;;7.17;6.57;;;;;;;;;;5089512;28;20961;-58
2021/06/03 05:07:10;;;;;;;8.63;7.30;;;;;;;;;;5089686;28;20482;-58
2021/06/03 05:12:23;;;;;;;9.03;6.27;;;;;;;;;;5088496;28;20830;-53
2021/06/03 05:14:51;;;;;;;9.20;6.27;;;;;;;;;;5089480;28;20450;-54
2021/06/03 05:17:18;;;;;;;6.83;6.23;;;;;;;;;;5088864;28;20433;-53
2021/06/03 05:19:45;;;;;;;6.10;5.50;;;;;;;;;;5075625;28;20492;-53
2021/06/03 05:22:11;;;;;;;6.90;6.23;;;;;;;;;;5075777;28;20469;-53
2021/06/03 05:24:38;;;;;;;7.17;6.50;;;;;;;;;;5075920;28;20498;-54
2021/06/03 05:27:06;;;;;;;6.43;5.60;;;;;;;;;;5075726;28;20574;-52
2021/06/03 05:29:33;;;;;;;7.87;6.07;;;;;;;;;;5075846;28;20459;-53
2021/06/03 05:32:01;;;;;;;7.53;5.87;;;;;;;;;;5075254;28;21039;-53
2021/06/03 05:34:28;;;;;;;6.70;6.10;;;;;;;;;;5139569;22;20480;-58
2021/06/03 05:36:54;;;;;;;7.53;6.10;;;;;;;;;;5096500;28;20796;-58
2021/06/03 05:39:21;;;;;;;6.50;5.90;;;;;;;;;;5095465;28;20440;-58
2021/06/03 05:41:48;;;;;;;6.63;5.93;;;;;;;;;;5095780;28;20487;-57
2021/06/03 05:44:15;;;;;;;7.30;5.50;;;;;;;;;;5095639;28;20476;-58
2021/06/03 05:46:42;;;;;;;6.80;6.10;;;;;;;;;;5095239;28;20475;-57
2021/06/03 05:49:11;;;;;;;6.23;5.73;;;;;;;;;;5095088;28;20816;-57
2021/06/03 05:51:39;;;;;;;6.43;5.60;;;;;;;;;;5095358;28;20521;-57
2021/06/03 05:54:06;;;;;;;6.97;5.40;;;;;;;;;;5094937;28;20499;-57
2021/06/03 05:56:33;;;;;;;8.63;5.40;;;;;;;;;;5095321;28;20468;-57
2021/06/03 05:59:00;;;;;;;7.33;5.20;;;;;;;;;;5098998;22;20493;-53
2021/06/03 06:01:28;;;;;;;10.13;6.43;;;;;;;;;;5074579;28;20789;-55
2021/06/03 06:04:09;;;;;;;6.50;5.90;;;;;;;;;;5077025;28;20460;-54
2021/06/03 06:06:36;;;;;;;7.10;5.30;;;;;;;;;;5074657;28;20466;-53
2021/06/03 06:09:06;;;;;;;5.80;5.20;;;;;;;;;;5076275;28;20475;-54
2021/06/03 06:11:34;;;;;;;9.07;5.63;;;;;;;;;;5074900;28;20817;-54
2021/06/03 06:14:01;;;;;;;7.80;5.70;;;;;;;;;;5074895;28;20455;-53
2021/06/03 06:16:28;;;;;;;9.17;5.77;;;;;;;;;;5074580;28;20447;-54
2021/06/03 06:18:54;;;;;;;5.93;5.07;;;;;;;;;;5074280;28;20554;-53
2021/06/03 06:21:22;;;;;;;7.50;5.60;;;;;;;;;;5074637;28;20449;-54
2021/06/03 06:23:50;;;;;;;7.40;5.40;;;;;;;;;;5074140;28;20480;-54
2021/06/03 06:26:17;;;;;;;8.13;6.70;;;;;;;;;;5074526;28;20902;-56
2021/06/03 06:28:44;;;;;;;6.53;4.90;;;;;;;;;;5074499;28;20470;-54
2021/06/03 06:31:11;;;;;;;5.77;5.17;;;;;;;;;;5073385;28;20450;-52
2021/06/03 06:33:39;;;;;;;8.30;4.53;;;;;;;;;;5074072;28;20440;-50
2021/06/03 06:36:06;;;;;;;8.93;5.23;;;;;;;;;;5074201;28;20448;-53
2021/06/03 06:38:33;;;;;;;7.73;5.47;;;;;;;;;;5074064;28;20465;-52
2021/06/03 06:41:01;;;;;;;10.17;5.43;;;;;;;;;;5054827;22;20498;-57
2021/06/03 06:43:28;;;;;;;7.57;4.80;;;;;;;;;;4991769;28;20451;-59
2021/06/03 06:45:55;;;;;;;6.93;5.33;;;;;;;;;;4991855;28;20524;-58
2021/06/03 06:48:22;;;;;;;6.23;4.87;;;;;;;;;;4991605;28;20591;-59
2021/06/03 06:50:50;;;;;;;5.07;4.47;;;;;;;;;;4991899;28;20495;-58
2021/06/03 06:53:17;;;;;;;5.03;4.53;;;;;;;;;;5022732;22;20480;-55
2021/06/03 06:55:43;;;;;;;5.40;4.40;;;;;;;;;;5094295;28;20434;-55
2021/06/03 06:58:12;;;;;;;5.63;4.80;;;;;;;;;;5094060;28;20486;-55
2021/06/03 07:00:40;;;;;;;4.67;4.27;;;;;;;;;;5093984;28;20939;-55
2021/06/03 07:03:08;;;;;;;5.10;4.50;;;;;;;;;;5093913;28;20445;-54
2021/06/03 07:05:35;;;;;;;7.87;5.67;;;;;;;;;;5094115;28;20502;-55
2021/06/03 07:08:02;;;;;;;6.80;4.20;;;;;;;;;;5055657;22;20502;-60
2021/06/03 07:10:29;;;;;;;4.30;3.93;;;;;;;;;;4991356;28;20454;-57
2021/06/03 07:12:55;;;;;;;6.67;6.07;;;;;;;;;;4991775;28;20496;-58
2021/06/03 07:15:24;;;;;;;4.40;3.80;;;;;;;;;;4991504;28;20450;-57
2021/06/03 07:17:50;;;;;;;4.93;4.50;;;;;;;;;;4991346;28;20998;-58
2021/06/03 07:20:19;;;;;;;6.10;4.40;;;;;;;;;;4991468;28;20443;-57
2021/06/03 07:22:47;;;;;;;5.30;4.80;;;;;;;;;;4991408;28;20814;-57
2021/06/03 07:25:15;;;;;;;4.70;4.30;;;;;;;;;;5031460;22;20506;-54
2021/06/03 07:27:52;;;;;;;5.13;4.53;;;;;;;;;;5093902;28;20511;-52
2021/06/03 07:30:21;;;;;;;4.90;4.53;;;;;;;;;;5093363;28;20431;-54
2021/06/03 07:32:49;;;;;;;5.40;4.30;;;;;;;;;;5093310;28;20453;-54
2021/06/03 07:35:16;;;;;;;5.07;4.57;;;;;;;;;;5093439;28;20468;-54
2021/06/03 07:37:43;;;;;;;5.43;4.67;;;;;;;;;;5094275;28;20440;-54
2021/06/03 07:40:11;;;;;;;8.10;4.27;;;;;;;;;;5093230;28;20441;-53
2021/06/03 07:42:38;;;;;;;8.60;5.20;;;;;;;;;;5093103;28;20826;-53
2021/06/03 07:45:06;;;;;;;5.53;4.00;;;;;;;;;;5093609;28;20818;-53
2021/06/03 07:47:33;;;;;;;5.00;4.50;;;;;;;;;;5093173;28;20995;-54
2021/06/03 07:50:02;;;;;;;11.20;4.60;;;;;;;;;;5093134;28;20450;-54
2021/06/03 07:52:28;;;;;;;6.40;4.93;;;;;;;;;;5092617;28;20445;-53
2021/06/03 07:54:55;;;;;;;5.50;4.50;;;;;;;;;;5093098;28;20443;-54
2021/06/03 07:57:22;;;;;;;7.67;4.60;;;;;;;;;;5093499;28;20462;-54
2021/06/03 07:59:49;;;;;;;7.13;4.30;;;;;;;;;;5095595;28;20531;-53
2021/06/03 08:02:16;;;;;;;6.63;4.80;;;;;;;;;;5094170;28;20449;-53
2021/06/03 08:04:42;;;;;;;5.07;4.57;;;;;;;;;;5058368;22;20909;-58
2021/06/03 08:07:11;;;;;;;6.60;4.60;;;;;;;;;;4990746;28;20487;-59
2021/06/03 08:09:37;;;;;;;5.30;4.80;;;;;;;;;;4991042;28;20520;-58
2021/06/03 08:12:05;;;;;;;4.67;4.27;;;;;;;;;;4990584;28;20820;-58
2021/06/03 08:14:32;;;;;;;6.07;4.53;;;;;;;;;;4990649;28;20856;-59
2021/06/03 08:16:58;;;;;;;5.00;4.60;;;;;;;;;;5039391;22;20451;-55
2021/06/03 08:19:25;;;;;;;6.37;4.67;;;;;;;;;;5072963;28;20485;-53
2021/06/03 08:21:52;;;;;;;5.70;4.80;;;;;;;;;;5072499;28;20440;-53
2021/06/03 08:24:20;;;;;;;5.53;4.53;;;;;;;;;;5072322;28;20452;-54
2021/06/03 08:26:50;;;;;;;4.87;4.47;;;;;;;;;;5072496;28;20853;-54
2021/06/03 08:29:17;;;;;;;5.60;5.03;;;;;;;;;;5073099;28;20541;-54
2021/06/03 08:31:44;;;;;;;8.93;4.60;;;;;;;;;;5072323;28;20442;-54
2021/06/03 08:34:11;;;;;;;5.30;4.80;;;;;;;;;;5072411;28;20450;-53
2021/06/03 08:36:39;;;;;;;4.73;4.43;;;;;;;;;;5074025;28;20454;-52
2021/06/03 08:39:06;;;;;;;4.77;4.37;;;;;;;;;;5074072;28;20560;-54
2021/06/03 08:41:37;;;;;;;6.00;4.70;;;;;;;;;;5072171;28;20900;-54
2021/06/03 08:44:04;;;;;;;5.93;4.83;;;;;;;;;;5072391;28;20914;-56
2021/06/03 08:46:31;;;;;;;6.90;4.80;;;;;;;;;;5072229;28;20798;-55
2021/06/03 08:48:58;;;;;;;5.57;4.70;;;;;;;;;;5072520;28;20473;-54
2021/06/03 08:51:24;;;;;;;7.30;4.97;;;;;;;;;;5072607;28;20454;-55
2021/06/03 08:53:51;;;;;;;4.40;4.10;;;;;;;;;;5074404;28;20440;-54
2021/06/03 08:56:18;;;;;;;8.07;4.77;;;;;;;;;;5076480;28;20449;-55
2021/06/03 08:58:47;;;;;;;6.77;4.20;;;;;;;;;;5075988;28;20496;-55
2021/06/03 09:01:14;;;;;;;5.10;4.60;;;;;;;;;;5076081;28;20825;-54
2021/06/03 09:03:41;;;;;;;6.53;4.00;;;;;;;;;;5076539;28;20450;-54
2021/06/03 09:06:09;;;;;;;5.67;4.50;;;;;;;;;;5075990;28;20441;-53
2021/06/03 09:08:37;;;;;;;5.80;4.50;;;;;;;;;;5075850;28;20507;-54
2021/06/03 09:11:05;;;;;;;9.13;4.77;;;;;;;;;;5077311;28;20454;-53
2021/06/03 09:13:34;;;;;;;6.53;4.20;;;;;;;;;;5075950;28;20452;-55
2021/06/03 09:16:12;;;;;;;6.60;4.90;;;;;;;;;;5075808;28;20943;-53
2021/06/03 09:18:40;;;;;;;7.30;4.67;;;;;;;;;;5075320;28;20861;-54
2021/06/03 09:21:10;;;;;;;7.03;4.43;;;;;;;;;;5075745;28;20440;-54
2021/06/03 09:23:37;;;;;;;5.90;4.97;;;;;;;;;;5075518;28;20470;-55
2021/06/03 09:26:09;;;;;;;3.90;3.60;;;;;;;;;;5075423;28;20890;-53
2021/06/03 09:28:36;;;;;;;6.27;4.23;;;;;;;;;;5075489;28;20540;-53
2021/06/03 09:31:06;;;;;;;5.53;4.03;;;;;;;;;;5075679;28;20440;-55
2021/06/03 09:33:40;;;;;;;7.00;4.40;;;;;;;;;;5075979;28;20450;-54
2021/06/03 09:36:08;;;;;;;6.27;4.90;;;;;;;;;;5075351;28;20438;-53
2021/06/03 09:38:35;;;;;;;4.60;4.10;;;;;;;;;;5075050;28;20468;-53
2021/06/03 09:41:03;;;;;;;4.77;4.20;;;;;;;;;;5075144;28;20933;-55
2021/06/03 09:43:29;;;;;;;4.40;3.77;;;;;;;;;;5074916;28;20958;-55
2021/06/03 09:45:58;;;;;;;5.60;3.90;;;;;;;;;;5057975;22;20487;-59
2021/06/03 09:48:40;;;;;;;4.50;4.10;;;;;;;;;;4992791;28;20488;-58
2021/06/03 09:51:30;;;;;;;6.10;3.93;;;;;;;;;;4993205;28;20455;-58
2021/06/03 09:53:58;;;;;;;5.60;4.37;;;;;;;;;;4982789;28;20450;-59
2021/06/03 09:56:26;;;;;;;4.67;4.10;;;;;;;;;;4993002;28;20471;-59
2021/06/03 09:58:53;;;;;;;5.40;4.20;;;;;;;;;;4993549;28;20819;-58
2021/06/03 10:01:39;;;;;;;6.90;4.70;;;;;;;;;;5066790;22;20496;-55
2021/06/03 10:04:08;;;;;;;6.67;4.10;;;;;;;;;;5095393;28;20447;-54
2021/06/03 10:06:34;;;;;;;4.37;3.90;;;;;;;;;;5094734;28;20481;-55
2021/06/03 10:09:01;;;;;;;4.27;3.87;;;;;;;;;;5095290;28;20441;-54
2021/06/03 10:11:44;;;;;;;6.73;4.57;;;;;;;;;;5094760;28;20465;-54
2021/06/03 10:14:11;;;;;;;6.00;3.70;;;;;;;;;;5094850;28;20446;-55
2021/06/03 10:16:38;;;;;;;5.37;4.30;;;;;;;;;;5039268;22;20500;-58
2021/06/03 10:19:22;;;;;;;4.33;3.70;;;;;;;;;;4992104;28;20450;-58
2021/06/03 10:22:04;;;;;;;5.80;3.90;;;;;;;;;;4992100;28;20853;-57
2021/06/03 10:24:45;;;;;;;4.47;4.03;;;;;;;;;;4990959;28;20464;-58
2021/06/03 10:27:12;;;;;;;8.13;5.20;;;;;;;;;;4991686;28;20480;-59
2021/06/03 10:32:08;;;;;;;6.43;4.63;;;;;;;;;;5072783;28;20460;-56
2021/06/03 10:34:37;;;;;;;5.10;4.60;;;;;;;;;;5074245;28;20448;-55
2021/06/03 10:37:04;;;;;;;6.03;4.40;;;;;;;;;;5073928;28;20441;-54
2021/06/03 10:39:32;;;;;;;5.10;4.70;;;;;;;;;;5074054;28;20866;-53
2021/06/03 10:42:00;;;;;;;7.47;5.50;;;;;;;;;;5053830;28;20474;-53
2021/06/03 10:44:27;;;;;;;5.57;5.00;;;;;;;;;;5053978;28;20450;-50
2021/06/03 10:46:54;;;;;;;5.70;5.20;;;;;;;;;;5053574;28;20482;-54
2021/06/03 10:49:22;;;;;;;5.90;5.13;;;;;;;;;;5053766;28;20928;-54
2021/06/03 10:51:50;;;;;;;5.87;4.07;;;;;;;;;;5053902;28;20469;-56
2021/06/03 10:54:31;;;;;;;6.07;5.20;;;;;;;;;;5053792;28;20744;-54
2021/06/03 10:56:59;;;;;;;6.40;5.67;;;;;;;;;;5052850;28;20442;-54
2021/06/03 10:59:29;;;;;;;8.47;5.03;;;;;;;;;;5053616;28;20805;-55
2021/06/03 11:01:57;;;;;;;6.43;5.07;;;;;;;;;;5053811;28;20532;-53
2021/06/03 11:04:27;;;;;;;7.47;4.73;;;;;;;;;;5053936;28;20451;-55
2021/06/03 11:06:56;;;;;;;6.57;4.83;;;;;;;;;;5053554;28;20571;-54
2021/06/03 11:09:26;;;;;;;6.60;5.10;;;;;;;;;;5053497;28;20468;-56
2021/06/03 11:12:06;;;;;;;10.43;6.53;;;;;;;;;;5053249;28;20553;-54
2021/06/03 11:14:33;;;;;;;6.53;5.30;;;;;;;;;;5053139;28;20427;-55
2021/06/03 11:17:00;;;;;;;6.40;5.30;;;;;;;;;;5052799;28;20437;-54
2021/06/03 11:19:27;;;;;;;7.40;4.63;;;;;;;;;;5054350;28;20447;-55
2021/06/03 11:22:03;;;;;;;6.67;4.90;;;;;;;;;;5053234;28;20553;-56
2021/06/03 11:24:46;;;;;;;8.90;4.83;;;;;;;;;;5053295;28;20435;-56
2021/06/03 11:27:14;;;;;;;5.77;5.27;;;;;;;;;;5052945;28;20465;-55
2021/06/03 11:29:54;;;;;;;6.10;4.53;;;;;;;;;;5053104;28;20447;-54
2021/06/03 11:32:21;;;;;;;7.63;4.83;;;;;;;;;;5053102;28;20424;-55
2021/06/03 11:34:50;;;;;;;5.40;4.90;;;;;;;;;;5053052;28;20910;-54
2021/06/03 11:37:19;;;;;;;5.13;4.63;;;;;;;;;;5052821;28;20879;-54
2021/06/03 11:39:47;;;;;;;5.53;4.30;;;;;;;;;;5052934;28;20453;-54
2021/06/03 11:42:28;;;;;;;5.20;4.60;;;;;;;;;;5053337;28;20744;-53
2021/06/03 11:45:22;;;;;;;12.23;4.63;;;;;;;;;;5053067;28;20519;-56
2021/06/03 11:48:09;;;;;;;5.30;4.90;;;;;;;;;;5053383;28;20467;-54
2021/06/03 11:50:51;;;;;;;5.90;5.40;;;;;;;;;;5053374;28;20520;-58
2021/06/03 11:53:20;;;;;;;5.20;4.70;;;;;;;;;;5050025;28;20444;-56
2021/06/03 11:55:49;;;;;;;8.03;4.90;;;;;;;;;;5052971;28;20481;-55
2021/06/03 11:58:17;;;;;;;6.73;4.90;;;;;;;;;;5052794;28;20474;-54
2021/06/03 12:00:45;;;;;;;4.67;4.27;;;;;;;;;;5052775;28;20466;-54
2021/06/03 12:03:39;;;;;;;6.73;4.60;;;;;;;;;;5052404;28;20442;-54
2021/06/03 12:06:07;;;;;;;5.47;4.97;;;;;;;;;;5006103;28;20975;-55
2021/06/03 12:08:41;;;;;;;5.67;4.47;;;;;;;;;;5052339;28;20938;-56
2021/06/03 12:11:09;;;;;;;5.30;4.80;;;;;;;;;;5052732;28;20525;-55
2021/06/03 12:13:36;;;;;;;5.10;4.30;;;;;;;;;;5052687;28;20451;-55
2021/06/03 12:16:03;;;;;;;5.23;4.73;;;;;;;;;;5052702;28;20451;-54
2021/06/03 12:18:37;;;;;;;5.87;4.80;;;;;;;;;;5052171;28;20439;-51
2021/06/03 12:21:04;;;;;;;9.17;4.77;;;;;;;;;;5052492;28;20486;-55
2021/06/03 12:23:32;;;;;;;5.20;4.60;;;;;;;;;;5052497;28;20512;-53
2021/06/03 12:26:00;;;;;;;7.70;5.80;;;;;;;;;;5052262;28;20450;-55
2021/06/03 12:28:34;;;;;;;7.53;5.57;;;;;;;;;;5055644;28;20486;-54
2021/06/03 12:31:02;;;;;;;6.33;5.00;;;;;;;;;;5056019;28;20561;-55
2021/06/03 12:33:29;;;;;;;10.23;5.77;;;;;;;;;;5056185;28;20449;-55
2021/06/03 12:35:57;;;;;;;7.70;5.40;;;;;;;;;;5056146;28;20947;-55
2021/06/03 12:38:28;;;;;;;5.03;4.63;;;;;;;;;;5056081;28;20446;-55
2021/06/03 12:40:56;;;;;;;6.97;5.00;;;;;;;;;;5056028;28;20964;-55
2021/06/03 12:43:24;;;;;;;5.83;5.33;;;;;;;;;;5056276;28;20494;-56
2021/06/03 12:45:51;;;;;;;6.10;5.47;;;;;;;;;;5055962;28;20461;-54
2021/06/03 12:48:18;;;;;;;6.10;5.47;;;;;;;;;;5056026;28;20487;-55
2021/06/03 12:50:46;;;;;;;7.23;5.70;;;;;;;;;;5056063;28;20475;-54
2021/06/03 12:53:15;;;;;;;6.20;5.60;;;;;;;;;;5055945;28;20509;-53
2021/06/03 12:55:41;;;;;;;5.97;5.00;;;;;;;;;;5055830;28;20450;-54
2021/06/03 12:58:09;;;;;;;6.00;5.03;;;;;;;;;;5056914;28;20451;-55
2021/06/03 13:00:38;;;;;;;5.67;5.17;;;;;;;;;;5057092;28;20520;-56
2021/06/03 13:03:12;;;;;;;6.90;5.53;;;;;;;;;;5055649;28;20937;-54
2021/06/03 13:05:39;;;;;;;6.30;5.70;;;;;;;;;;5055448;28;20452;-54
2021/06/03 13:08:05;;;;;;;8.40;5.80;;;;;;;;;;5055339;28;20478;-56
2021/06/03 13:10:33;;;;;;;10.03;6.20;;;;;;;;;;5056000;28;20473;-55
2021/06/03 13:13:00;;;;;;;6.40;5.27;;;;;;;;;;5055270;28;20852;-54
2021/06/03 13:15:27;;;;;;;5.50;4.70;;;;;;;;;;5055490;28;20453;-55
2021/06/03 13:17:58;;;;;;;6.53;5.93;;;;;;;;;;5055115;28;20825;-54
2021/06/03 13:20:26;;;;;;;5.43;4.93;;;;;;;;;;5055253;28;20999;-54
2021/06/03 13:22:53;;;;;;;5.77;5.17;;;;;;;;;;5055458;28;20454;-55
2021/06/03 13:25:21;;;;;;;5.27;4.87;;;;;;;;;;5055252;28;20470;-55
2021/06/03 13:27:49;;;;;;;5.50;5.00;;;;;;;;;;5055425;28;20475;-55
2021/06/03 13:30:17;;;;;;;6.67;5.37;;;;;;;;;;5055315;28;20487;-56
2021/06/03 13:32:45;;;;;;;6.17;5.03;;;;;;;;;;5055337;28;20451;-55
2021/06/03 13:35:14;;;;;;;5.63;5.13;;;;;;;;;;5055311;28;20451;-56
2021/06/03 13:37:42;;;;;;;6.40;5.10;;;;;;;;;;5054916;28;20449;-55
2021/06/03 13:40:10;;;;;;;8.93;5.70;;;;;;;;;;5054992;28;20474;-55
2021/06/03 13:42:39;;;;;;;6.40;5.90;;;;;;;;;;5054944;28;20455;-55
2021/06/03 13:45:07;;;;;;;8.87;6.13;;;;;;;;;;5055330;28;20529;-56
2021/06/03 13:50:28;;;;;;;7.33;5.50;;;;;;;;;;5074141;28;20861;-60
2021/06/03 13:52:57;;;;;;;8.10;5.70;;;;;;;;;;5075499;28;20448;-60
2021/06/03 13:55:24;;;;;;;5.40;4.90;;;;;;;;;;5076336;28;20495;-59
2021/06/03 13:57:51;;;;;;;8.53;5.03;;;;;;;;;;5075037;28;20448;-60
2021/06/03 14:00:39;;;;;;;5.90;5.33;;;;;;;;;;5075374;28;20472;-59
2021/06/03 14:03:08;;;;;;;5.50;5.00;;;;;;;;;;5132861;22;20494;-56
2021/06/03 14:05:38;;;;;;;5.77;5.10;;;;;;;;;;5156785;27;20451;-54
2021/06/03 14:08:08;;;;;;;5.83;5.00;;;;;;;;;;5155631;27;20482;-54
2021/06/03 14:10:35;;;;;;;9.00;5.20;;;;;;;;;;5156774;27;20524;-55
2021/06/03 14:13:04;;;;;;;5.30;4.70;;;;;;;;;;5156373;27;20458;-55
2021/06/03 14:15:38;;;;;;;5.50;4.70;;;;;;;;;;5156181;27;20447;-55
2021/06/03 14:18:05;;;;;;;8.00;5.43;;;;;;;;;;5156519;27;20446;-56
2021/06/03 14:20:32;;;;;;;6.50;5.13;;;;;;;;;;5167998;22;20534;-59
2021/06/03 14:23:00;;;;;;;4.50;4.10;;;;;;;;;;5156968;27;20428;-59
2021/06/03 14:25:36;;;;;;;2.77;2.07;;;;;;;;;;5156678;27;20435;-59
2021/06/03 14:28:10;;;;;;;3.33;2.10;;;;;;;;;;5156153;27;20461;-59
2021/06/03 14:30:38;;;;;;;3.40;1.67;;;;;;;;;;5156750;27;20490;-60
2021/06/03 14:33:06;;;;;;;3.53;2.47;;;;;;;;;;5168325;22;20491;-54
2021/06/03 14:35:33;;;;;;;2.60;2.40;;;;;;;;;;5155950;27;20453;-53
2021/06/03 14:38:06;;;;;;;2.80;2.03;;;;;;;;;;5155506;27;20436;-55
2021/06/03 14:40:34;;;;;;;6.63;2.73;;;;;;;;;;5155546;27;21036;-54
2021/06/03 14:43:07;;;;;;;4.30;2.13;;;;;;;;;;5155653;27;20519;-55
2021/06/03 14:45:35;;;;;;;4.63;2.47;;;;;;;;;;5155446;27;20580;-54
2021/06/03 14:48:01;;;;;;;6.70;2.30;;;;;;;;;;5156034;27;20479;-52
2021/06/03 14:50:29;;;;;;;4.27;2.80;;;;;;;;;;5154863;27;20440;-53
2021/06/03 14:52:56;;;;;;;4.13;2.63;;;;;;;;;;5155302;27;20466;-55
2021/06/03 14:55:25;;;;;;;6.10;3.20;;;;;;;;;;5155433;27;20444;-54
2021/06/03 14:57:53;;;;;;;8.70;3.87;;;;;;;;;;5155410;27;20847;-57
2021/06/03 15:00:21;;;;;;;9.00;3.77;;;;;;;;;;5155327;27;20810;-59
2021/06/03 15:02:48;;;;;;;9.67;4.10;;;;;;;;;;5155479;27;20466;-58